createdAt,value
2023-05-12T00:01:21.840Z,102153.69
2023-05-12T00:04:08.930Z,102097.97
2023-05-12T00:06:56.259Z,102163.50
2023-05-12T00:09:43.293Z,102140.84
2023-05-12T00:12:30.230Z,102164.38
2023-05-12T00:15:17.257Z,102169.75
2023-05-12T00:18:04.367Z,102174.22
2023-05-12T00:20:51.380Z,102181.31
2023-05-12T00:23:38.424Z,102178.84
2023-05-12T00:26:25.443Z,102195.56
2023-05-12T00:29:12.722Z,102195.63
2023-05-12T00:31:59.795Z,102196.53
2023-05-12T00:34:47.647Z,102192.16
2023-05-12T00:37:34.686Z,102193.19
2023-05-12T00:40:21.957Z,102200.25
2023-05-12T00:43:09.301Z,102203.81
2023-05-12T00:45:56.777Z,102156.75
2023-05-12T00:48:44.306Z,102205.72
2023-05-12T00:51:32.369Z,102199.56
2023-05-12T00:54:19.472Z,102208.47
2023-05-12T00:57:06.426Z,102210.25
2023-05-12T00:59:53.921Z,102210.28
2023-05-12T01:02:41.871Z,102168.56
2023-05-12T01:05:29.594Z,102185.19
2023-05-12T01:08:19.845Z,102220.19
2023-05-12T01:11:07.485Z,102205.31
2023-05-12T01:13:54.686Z,102224.47
2023-05-12T01:16:46.428Z,102236.84
2023-05-12T01:19:53.009Z,102230.59
2023-05-12T01:22:40.204Z,102207.22
2023-05-12T01:25:30.577Z,102249.22
2023-05-12T01:28:18.068Z,102236.88
2023-05-12T01:31:05.877Z,102175.88
2023-05-12T01:33:54.848Z,102191.56
2023-05-12T01:36:41.977Z,102252.81
2023-05-12T01:39:28.978Z,102251.97
2023-05-12T01:42:16.634Z,102234.72
2023-05-12T01:45:03.878Z,102259.94
2023-05-12T01:47:51.579Z,102260.88
2023-05-12T01:50:38.603Z,102254.78
2023-05-12T01:53:30.775Z,102254.75
2023-05-12T01:56:17.798Z,102250.50
2023-05-12T01:59:05.544Z,102219.28
2023-05-12T02:01:52.913Z,102248.97
2023-05-12T02:04:47.117Z,102266.44
2023-05-12T02:07:35.676Z,102269.16
2023-05-12T02:10:22.895Z,102270.03
2023-05-12T02:13:09.999Z,102270.03
2023-05-12T02:15:57.328Z,102268.31
2023-05-12T02:18:44.405Z,102258.75
2023-05-12T02:21:31.881Z,102271.22
2023-05-12T02:24:19.532Z,102238.88
2023-05-12T02:27:06.758Z,102291.34
2023-05-12T02:29:54.014Z,102289.53
2023-05-12T02:32:42.039Z,102289.50
2023-05-12T02:35:29.735Z,102279.78
2023-05-12T02:38:16.648Z,102292.03
2023-05-12T02:41:03.701Z,102285.94
2023-05-12T02:43:50.587Z,102261.34
2023-05-12T02:46:38.308Z,102291.88
2023-05-12T02:49:25.491Z,102261.41
2023-05-12T02:52:12.606Z,102307.72
2023-05-12T02:54:59.634Z,102314.75
2023-05-12T02:57:46.959Z,102298.97
2023-05-12T03:00:34.423Z,102305.09
2023-05-12T03:03:01.740Z,102312.78
2023-05-12T03:05:48.689Z,102310.06
2023-05-12T03:08:36.108Z,102309.97
2023-05-12T03:11:23.371Z,102302.84
2023-05-12T03:14:10.667Z,102303.63
2023-05-12T03:16:57.967Z,102272.41
2023-05-12T03:19:45.145Z,102324.72
2023-05-12T03:22:34.035Z,102329.03
2023-05-12T03:25:21.208Z,102306.34
2023-05-12T03:28:08.100Z,102326.22
2023-05-12T03:30:55.255Z,102323.44
2023-05-12T03:33:43.556Z,102324.22
2023-05-12T03:36:30.647Z,102275.38
2023-05-12T03:39:17.602Z,102324.06
2023-05-12T03:42:04.776Z,102320.53
2023-05-12T03:44:51.767Z,102332.75
2023-05-12T03:47:38.995Z,102299.47
2023-05-12T03:50:27.642Z,102328.25
2023-05-12T03:53:14.800Z,102338.66
2023-05-12T03:56:01.926Z,102344.72
2023-05-12T03:58:49.094Z,102342.81
2023-05-12T04:01:37.362Z,102342.69
2023-05-12T04:04:24.586Z,102347.88
2023-05-12T04:07:11.547Z,102351.31
2023-05-12T04:09:58.780Z,102344.09
2023-05-12T04:12:45.704Z,102355.47
2023-05-12T04:15:33.139Z,102353.56
2023-05-12T04:18:20.251Z,102360.63
2023-05-12T04:21:07.344Z,102350.69
2023-05-12T04:23:54.411Z,102377.84
2023-05-12T04:26:44.918Z,102372.31
2023-05-12T04:29:32.270Z,102370.34
2023-05-12T04:32:19.414Z,102356.19
2023-05-12T04:35:06.573Z,102377.13
2023-05-12T04:37:53.923Z,102383.00
2023-05-12T04:40:42.167Z,102392.53
2023-05-12T04:46:20.821Z,102403.53
2023-05-12T04:49:08.976Z,102393.84
2023-05-12T04:51:55.987Z,102411.97
2023-05-12T04:54:43.039Z,102391.66
2023-05-12T04:57:30.229Z,102408.78
2023-05-12T05:00:17.592Z,102412.06
2023-05-12T05:03:06.051Z,102395.22
2023-05-12T05:05:53.571Z,102387.16
2023-05-12T05:08:40.744Z,102417.38
2023-05-12T05:11:27.846Z,102400.56
2023-05-12T05:14:14.826Z,102419.34
2023-05-12T05:17:02.144Z,102389.31
2023-05-12T05:19:57.867Z,102423.91
2023-05-12T05:22:48.997Z,102424.63
2023-05-12T05:25:36.212Z,102425.22
2023-05-12T05:28:23.246Z,102439.81
2023-05-12T05:31:10.232Z,102442.13
2023-05-12T05:33:57.720Z,102425.22
2023-05-12T05:36:48.801Z,102402.19
2023-05-12T05:39:36.258Z,102438.41
2023-05-12T05:42:23.302Z,102427.34
2023-05-12T05:45:10.490Z,102431.38
2023-05-12T05:47:58.362Z,102432.84
2023-05-12T05:50:46.229Z,102435.09
2023-05-12T05:53:33.380Z,102439.19
2023-05-12T05:56:20.648Z,102438.75
2023-05-12T05:59:07.650Z,102440.97
2023-05-12T06:01:55.002Z,102445.09
2023-05-12T06:04:42.272Z,102393.16
2023-05-12T06:07:29.393Z,102421.34
2023-05-12T06:10:16.323Z,102436.47
2023-05-12T06:13:03.554Z,102450.22
2023-05-12T06:15:50.466Z,102451.53
2023-05-12T06:18:38.095Z,102451.06
2023-05-12T06:21:26.005Z,102425.25
2023-05-12T06:24:12.996Z,102427.38
2023-05-12T06:27:02.070Z,102455.13
2023-05-12T06:29:49.231Z,102456.53
2023-05-12T06:32:36.299Z,102438.59
2023-05-12T06:35:23.541Z,102459.06
2023-05-12T06:38:10.858Z,102451.66
2023-05-12T06:40:57.859Z,102450.13
2023-05-12T06:43:44.855Z,102463.91
2023-05-12T06:46:33.863Z,102462.50
2023-05-12T06:49:20.760Z,102466.44
2023-05-12T06:52:07.804Z,102463.22
2023-05-12T06:54:54.785Z,102463.75
2023-05-12T06:57:41.761Z,102465.81
2023-05-12T07:00:29.286Z,102469.75
2023-05-12T07:03:16.421Z,102463.97
2023-05-12T07:06:03.673Z,102466.28
2023-05-12T07:08:50.808Z,102473.63
2023-05-12T07:11:37.876Z,102464.56
2023-05-12T07:14:25.163Z,102483.41
2023-05-12T07:17:12.161Z,102483.97
2023-05-12T07:19:59.134Z,102436.78
2023-05-12T07:22:46.190Z,102483.22
2023-05-12T07:25:33.346Z,102484.75
2023-05-12T07:28:20.629Z,102473.25
2023-05-12T07:31:07.675Z,102491.19
2023-05-12T07:33:55.841Z,102490.13
2023-05-12T07:36:23.223Z,102496.97
2023-05-12T07:38:50.402Z,102466.41
2023-05-12T07:41:37.406Z,102501.94
2023-05-12T07:44:24.628Z,102497.53
2023-05-12T07:47:11.563Z,102511.25
2023-05-12T07:49:58.586Z,102516.50
2023-05-12T07:52:45.515Z,102513.63
2023-05-12T07:55:32.908Z,102520.66
2023-05-12T07:58:20.240Z,102470.78
2023-05-12T08:01:07.255Z,102521.28
2023-05-12T08:03:55.306Z,102519.28
2023-05-12T08:06:42.340Z,102527.19
2023-05-12T08:09:29.307Z,102527.91
2023-05-12T08:12:16.285Z,102522.75
2023-05-12T08:15:03.388Z,102515.47
2023-05-12T08:17:50.432Z,102536.25
2023-05-12T08:20:37.402Z,102530.69
2023-05-12T08:23:24.615Z,102523.56
2023-05-12T08:26:11.810Z,102533.75
2023-05-12T08:28:58.849Z,102533.31
2023-05-12T08:31:45.757Z,102524.00
2023-05-12T08:34:32.825Z,102528.19
2023-05-12T08:37:20.565Z,102525.41
2023-05-12T08:40:07.807Z,102521.56
2023-05-12T08:43:03.591Z,102538.38
2023-05-12T08:45:50.888Z,102535.59
2023-05-12T08:48:39.989Z,102535.50
2023-05-12T08:51:31.514Z,102526.34
2023-05-12T08:54:19.069Z,102535.22
2023-05-12T08:57:10.309Z,102521.13
2023-05-12T08:59:59.760Z,102523.28
2023-05-12T09:02:54.030Z,102524.00
2023-05-12T09:05:42.823Z,102520.16
2023-05-12T09:08:30.881Z,102535.03
2023-05-12T09:11:18.691Z,102528.47
2023-05-12T09:14:14.659Z,102518.38
2023-05-12T09:17:04.788Z,102475.25
2023-05-12T09:19:51.848Z,102525.75
2023-05-12T09:22:39.336Z,102527.09
2023-05-12T09:25:40.226Z,102489.38
2023-05-12T09:28:27.337Z,102516.72
2023-05-12T09:31:14.823Z,102524.66
2023-05-12T09:34:01.909Z,102523.91
2023-05-12T09:36:48.901Z,102471.81
2023-05-12T09:39:37.511Z,102517.78
2023-05-12T09:42:30.484Z,102508.41
2023-05-12T09:45:23.377Z,102509.94
2023-05-12T09:48:10.606Z,102512.13
2023-05-12T09:51:09.184Z,102509.19
2023-05-12T09:53:42.693Z,102513.50
2023-05-12T09:56:10.866Z,102512.38
2023-05-12T09:58:42.256Z,102497.63
2023-05-12T10:01:21.942Z,102487.34
2023-05-12T10:03:57.557Z,102482.38
2023-05-12T10:06:30.398Z,102496.91
2023-05-12T10:09:09.264Z,102494.38
2023-05-12T10:11:36.948Z,102501.41
2023-05-12T10:14:05.161Z,102487.44
2023-05-12T10:16:33.708Z,102503.13
2023-05-12T10:19:01.777Z,102484.16
2023-05-12T10:21:29.035Z,102507.00
2023-05-12T10:23:57.086Z,102498.34
2023-05-12T10:26:24.690Z,102504.50
2023-05-12T10:28:52.987Z,102508.25
2023-05-12T10:31:22.397Z,102505.00
2023-05-12T10:33:57.841Z,102503.56
2023-05-12T10:36:25.157Z,102510.34
2023-05-12T10:38:52.646Z,102504.25
2023-05-12T10:41:34.228Z,102506.06
2023-05-12T10:44:01.519Z,102494.63
2023-05-12T10:46:28.707Z,102507.16
2023-05-12T10:48:56.705Z,102509.06
2023-05-12T10:51:51.313Z,102504.38
2023-05-12T10:54:24.985Z,102499.88
2023-05-12T10:56:53.566Z,102500.75
2023-05-12T10:59:24.129Z,102507.31
2023-05-12T11:02:06.979Z,102502.25
2023-05-12T11:04:42.757Z,102502.75
2023-05-12T11:07:12.214Z,102509.44
2023-05-12T11:09:56.657Z,102503.56
2023-05-12T11:12:27.342Z,102493.97
2023-05-12T11:14:54.830Z,102509.59
2023-05-12T11:17:21.932Z,102508.88
2023-05-12T11:20:10.715Z,102503.44
2023-05-12T11:23:00.817Z,102500.47
2023-05-12T11:25:48.007Z,102502.31
2023-05-12T11:28:35.043Z,102504.91
2023-05-12T11:31:22.201Z,102503.91
2023-05-12T11:34:12.981Z,102505.78
2023-05-12T11:37:01.869Z,102507.50
2023-05-12T11:39:52.582Z,102508.25
2023-05-12T11:42:39.569Z,102508.38
2023-05-12T11:45:27.040Z,102502.94
2023-05-12T11:48:26.716Z,102512.31
2023-05-12T11:51:13.776Z,102518.25
2023-05-12T11:54:01.078Z,102496.38
2023-05-12T11:56:48.319Z,102493.03
2023-05-12T11:59:46.448Z,102516.38
2023-05-12T12:02:40.468Z,102506.13
2023-05-12T12:05:37.290Z,102514.66
2023-05-12T12:08:28.342Z,102514.66
2023-05-12T12:11:15.488Z,102513.44
2023-05-12T12:14:08.743Z,102510.47
2023-05-12T12:16:55.700Z,102497.84
2023-05-12T12:19:42.821Z,102513.53
2023-05-12T12:22:29.872Z,102510.19
2023-05-12T12:25:17.131Z,102510.94
2023-05-12T12:28:04.137Z,102520.69
2023-05-12T12:30:51.430Z,102488.09
2023-05-12T12:33:38.433Z,102501.19
2023-05-12T12:36:25.802Z,102517.91
2023-05-12T12:39:12.774Z,102516.03
2023-05-12T12:42:00.036Z,102502.88
2023-05-12T12:44:47.173Z,102513.34
2023-05-12T12:47:34.171Z,102511.63
2023-05-12T12:50:21.211Z,102511.00
2023-05-12T12:53:08.236Z,102510.88
2023-05-12T12:55:55.499Z,102496.63
2023-05-12T12:58:42.500Z,102505.38
2023-05-12T13:01:29.831Z,102519.31
2023-05-12T13:04:17.116Z,102516.31
2023-05-12T13:07:04.053Z,102513.75
2023-05-12T13:09:51.008Z,102518.16
2023-05-12T13:12:37.962Z,102483.41
2023-05-12T13:15:25.871Z,102520.00
2023-05-12T13:18:13.060Z,102514.94
2023-05-12T13:21:00.443Z,102496.09
2023-05-12T13:23:47.442Z,102526.06
2023-05-12T13:26:34.543Z,102522.22
2023-05-12T13:29:21.500Z,102521.91
2023-05-12T13:32:08.631Z,102517.91
2023-05-12T13:34:55.725Z,102515.56
2023-05-12T13:37:42.834Z,102515.25
2023-05-12T13:40:30.189Z,102514.69
2023-05-12T13:43:17.165Z,102517.63
2023-05-12T13:46:04.216Z,102519.81
2023-05-12T13:48:51.329Z,102505.81
2023-05-12T13:51:39.436Z,102522.53
2023-05-12T13:54:26.544Z,102513.97
2023-05-12T13:57:13.800Z,102501.69
2023-05-12T14:00:00.832Z,102517.09
2023-05-12T14:02:47.840Z,102521.00
2023-05-12T14:05:35.267Z,102514.81
2023-05-12T14:08:22.335Z,102506.97
2023-05-12T14:11:09.376Z,102517.53
2023-05-12T14:13:56.412Z,102508.66
2023-05-12T14:16:43.637Z,102507.78
2023-05-12T14:19:30.558Z,102491.94
2023-05-12T14:22:25.332Z,102512.22
2023-05-12T14:25:13.584Z,102512.09
2023-05-12T14:28:00.626Z,102521.00
2023-05-12T14:30:47.677Z,102523.59
2023-05-12T14:33:34.695Z,102517.06
2023-05-12T14:36:21.778Z,102508.72
2023-05-12T14:39:08.715Z,102526.16
2023-05-12T14:41:55.718Z,102523.22
2023-05-12T14:44:42.691Z,102504.69
2023-05-12T14:47:29.804Z,102511.81
2023-05-12T14:50:16.889Z,102517.13
2023-05-12T14:53:03.874Z,102510.09
2023-05-12T14:55:51.496Z,102487.78
2023-05-12T14:58:41.329Z,102499.63
2023-05-12T15:01:28.334Z,102509.47
2023-05-12T15:04:15.591Z,102506.13
2023-05-12T15:07:02.576Z,102514.69
2023-05-12T15:09:49.509Z,102507.84
2023-05-12T15:12:36.383Z,102511.91
2023-05-12T15:15:23.498Z,102513.31
2023-05-12T15:18:10.612Z,102520.66
2023-05-12T15:20:58.085Z,102512.38
2023-05-12T15:23:45.003Z,102509.22
2023-05-12T15:26:34.159Z,102505.84
2023-05-12T15:29:22.859Z,102514.09
2023-05-12T15:32:09.961Z,102505.22
2023-05-12T15:34:57.048Z,102513.25
2023-05-12T15:37:44.272Z,102512.59
2023-05-12T15:40:31.544Z,102495.34
2023-05-12T15:43:18.554Z,102489.41
2023-05-12T15:46:05.533Z,102512.59
2023-05-12T15:48:52.576Z,102490.50
2023-05-12T15:51:39.568Z,102513.25
2023-05-12T15:54:26.650Z,102499.47
2023-05-12T15:57:13.592Z,102508.56
2023-05-12T16:00:00.594Z,102454.44
2023-05-12T16:02:47.957Z,102521.00
2023-05-12T16:05:35.091Z,102519.69
2023-05-12T16:08:22.208Z,102514.78
2023-05-12T16:11:09.174Z,102521.63
2023-05-12T16:13:56.327Z,102523.97
2023-05-12T16:16:43.293Z,102518.19
2023-05-12T16:19:30.518Z,102516.69
2023-05-12T16:22:17.525Z,102497.22
2023-05-12T16:25:04.527Z,102517.22
2023-05-12T16:27:51.767Z,102516.53
2023-05-12T16:30:38.786Z,102517.63
2023-05-12T16:33:25.686Z,102522.38
2023-05-12T16:36:12.905Z,102498.38
2023-05-12T16:38:59.860Z,102513.22
2023-05-12T16:41:46.982Z,102510.16
2023-05-12T16:44:34.254Z,102514.81
2023-05-12T16:47:21.257Z,102518.94
2023-05-12T16:50:12.385Z,102506.22
2023-05-12T16:52:59.485Z,102529.81
2023-05-12T16:55:46.445Z,102524.00
2023-05-12T16:58:33.486Z,102515.81
2023-05-12T17:01:21.250Z,102514.19
2023-05-12T17:04:08.588Z,102518.44
2023-05-12T17:06:55.728Z,102475.53
2023-05-12T17:09:42.752Z,102518.28
2023-05-12T17:12:29.790Z,102522.31
2023-05-12T17:15:16.782Z,102505.16
2023-05-12T17:18:03.884Z,102513.06
2023-05-12T17:20:51.332Z,102517.88
2023-05-12T17:23:38.380Z,102501.22
2023-05-12T17:26:25.358Z,102508.00
2023-05-12T17:29:12.426Z,102490.41
2023-05-12T17:31:59.455Z,102501.13
2023-05-12T17:34:46.536Z,102499.56
2023-05-12T17:37:33.534Z,102504.97
2023-05-12T17:40:20.779Z,102499.59
2023-05-12T17:43:08.141Z,102520.06
2023-05-12T17:45:55.284Z,102513.34
2023-05-12T17:48:45.233Z,102508.59
2023-05-12T17:51:32.346Z,102513.34
2023-05-12T17:54:19.507Z,102509.34
2023-05-12T17:57:07.318Z,102464.00
2023-05-12T17:59:54.471Z,102516.16
2023-05-12T18:02:41.567Z,102530.72
2023-05-12T18:05:29.048Z,102508.59
2023-05-12T18:08:16.137Z,102540.50
2023-05-12T18:11:03.508Z,102539.34
2023-05-12T18:13:50.447Z,102543.59
2023-05-12T18:16:37.599Z,102532.34
2023-05-12T18:19:24.580Z,102493.13
2023-05-12T18:22:14.630Z,102505.66
2023-05-12T18:25:01.697Z,102533.97
2023-05-12T18:27:48.758Z,102538.78
2023-05-12T18:30:36.119Z,102537.38
2023-05-12T18:33:23.058Z,102540.34
2023-05-12T18:36:10.090Z,102543.47
2023-05-12T18:38:56.964Z,102542.41
2023-05-12T18:41:43.878Z,102540.22
2023-05-12T18:44:30.798Z,102547.69
2023-05-12T18:47:17.795Z,102548.28
2023-05-12T18:50:04.674Z,102552.41
2023-05-12T18:52:51.885Z,102544.81
2023-05-12T18:55:38.834Z,102531.75
2023-05-12T18:58:25.960Z,102559.06
2023-05-12T19:01:13.388Z,102530.59
2023-05-12T19:04:00.346Z,102562.31
2023-05-12T19:06:47.488Z,102507.75
2023-05-12T19:09:34.713Z,102538.50
2023-05-12T19:12:22.132Z,102555.38
2023-05-12T19:15:09.322Z,102506.28
2023-05-12T19:17:56.393Z,102566.84
2023-05-12T19:20:43.579Z,102569.97
2023-05-12T19:23:30.509Z,102567.88
2023-05-12T19:26:18.299Z,102569.06
2023-05-12T19:29:05.254Z,102567.78
2023-05-12T19:31:52.328Z,102577.00
2023-05-12T19:34:39.479Z,102579.16
2023-05-12T19:37:26.505Z,102588.53
2023-05-12T19:40:13.672Z,102593.34
2023-05-12T19:43:00.974Z,102585.63
2023-05-12T19:45:48.932Z,102583.47
2023-05-12T19:48:35.998Z,102589.25
2023-05-12T19:51:22.999Z,102601.16
2023-05-12T19:54:10.080Z,102588.03
2023-05-12T19:56:57.146Z,102590.25
2023-05-12T19:59:44.252Z,102597.78
2023-05-12T20:02:34.081Z,102589.47
2023-05-12T20:05:21.565Z,102602.75
2023-05-12T20:08:08.908Z,102594.50
